Time;durP1;ratioP1;P1;durP2;ratioP2;P2;SDS_P1;SDS_P2;PMS_P1;PMS_P2;Temp;Humidity;BMP_temperature;BMP_pressure;BME280_temperature;BME280_humidity;BME280_pressure;Samples;Min_cycle;Max_cycle;Signal;HPM_P1;HPM_P2
2023/05/28 00:01:01;;;;;;;9.83;6.30;;;17.20;99.90;;;;;;5101551;28;20523;-84
2023/05/28 00:03:31;;;;;;;8.93;6.20;;;16.90;99.90;;;;;;5102600;28;20433;-84
2023/05/28 00:05:58;;;;;;;9.67;5.80;;;16.60;99.90;;;;;;5101418;28;20489;-84
2023/05/28 00:08:26;;;;;;;8.53;6.00;;;16.70;99.90;;;;;;5100695;28;20521;-84
2023/05/28 00:10:59;;;;;;;8.50;6.27;;;16.80;99.90;;;;;;5102321;28;20496;-84
2023/05/28 00:13:27;;;;;;;6.90;6.03;;;16.80;99.90;;;;;;5102566;28;20437;-83
2023/05/28 00:15:54;;;;;;;10.93;5.87;;;16.90;99.90;;;;;;5097125;28;20506;-84
2023/05/28 00:18:21;;;;;;;6.53;5.13;;;16.90;99.90;;;;;;5091926;28;20503;-84
2023/05/28 00:20:49;;;;;;;9.77;5.77;;;16.90;99.90;;;;;;5091729;28;20970;-84
2023/05/28 00:23:16;;;;;;;6.70;5.40;;;16.90;99.90;;;;;;5091395;28;20453;-84
2023/05/28 00:25:44;;;;;;;6.77;5.73;;;16.80;99.90;;;;;;5091280;28;20814;-85
2023/05/28 00:28:12;;;;;;;9.90;5.77;;;16.80;99.90;;;;;;5090877;28;20475;-84
2023/05/28 00:30:39;;;;;;;8.77;6.33;;;16.60;99.90;;;;;;5102660;28;20466;-84
2023/05/28 00:33:05;;;;;;;7.33;5.63;;;16.50;99.90;;;;;;5090857;28;20930;-85
2023/05/28 00:35:32;;;;;;;5.97;4.97;;;16.50;99.90;;;;;;5090949;28;20468;-85
2023/05/28 00:37:59;;;;;;;7.30;6.00;;;16.40;99.90;;;;;;5093292;28;20470;-85
2023/05/28 00:40:26;;;;;;;8.60;5.47;;;16.50;99.90;;;;;;5094991;28;20538;-84
2023/05/28 00:42:54;;;;;;;6.23;4.63;;;16.50;99.90;;;;;;5095139;28;20451;-84
2023/05/28 00:45:22;;;;;;;8.13;4.97;;;16.50;99.90;;;;;;5095261;28;20545;-84
2023/05/28 00:47:49;;;;;;;6.43;5.10;;;16.50;99.90;;;;;;5095347;28;20481;-84
2023/05/28 00:50:17;;;;;;;5.97;4.93;;;16.40;99.90;;;;;;5094840;28;20990;-84
2023/05/28 00:52:46;;;;;;;6.70;4.50;;;16.20;99.90;;;;;;5094810;28;20535;-84
2023/05/28 00:55:15;;;;;;;7.23;5.30;;;16.00;99.90;;;;;;5096108;28;20922;-84
2023/05/28 00:57:43;;;;;;;8.37;5.30;;;16.00;99.90;;;;;;5097364;28;20438;-84
2023/05/28 01:00:13;;;;;;;8.70;5.20;;;16.10;99.90;;;;;;5094580;28;20487;-84
2023/05/28 01:02:40;;;;;;;10.27;5.33;;;16.10;99.90;;;;;;5094729;28;20450;-84
2023/05/28 01:05:09;;;;;;;6.40;4.90;;;15.90;99.90;;;;;;5094661;28;20521;-84
2023/05/28 01:07:36;;;;;;;8.83;5.17;;;15.70;99.90;;;;;;5094370;28;20492;-84
2023/05/28 01:10:03;;;;;;;5.90;4.40;;;15.80;99.90;;;;;;5094367;28;20462;-84
2023/05/28 01:12:31;;;;;;;10.03;5.70;;;15.90;99.90;;;;;;5094313;28;20490;-84
2023/05/28 01:14:59;;;;;;;6.73;4.83;;;15.90;99.90;;;;;;5094814;28;20444;-84
2023/05/28 01:17:28;;;;;;;8.20;6.30;;;16.00;99.90;;;;;;5094582;28;20533;-84
2023/05/28 01:19:55;;;;;;;6.97;5.10;;;15.90;99.90;;;;;;5094203;28;21120;-84
2023/05/28 01:22:29;;;;;;;8.20;5.60;;;15.80;99.90;;;;;;5094018;28;20473;-84
2023/05/28 01:25:00;;;;;;;7.07;5.30;;;15.70;99.90;;;;;;5094090;28;21062;-84
2023/05/28 01:27:28;;;;;;;7.97;5.97;;;15.80;99.90;;;;;;5094171;28;20540;-84
2023/05/28 01:29:56;;;;;;;7.20;5.63;;;15.80;99.90;;;;;;5093515;28;20470;-84
2023/05/28 01:32:24;;;;;;;6.60;4.87;;;15.90;99.90;;;;;;5093657;28;21081;-84
2023/05/28 01:34:51;;;;;;;6.13;5.43;;;15.90;99.90;;;;;;5094125;28;20546;-84
2023/05/28 01:37:18;;;;;;;6.40;4.53;;;15.80;99.90;;;;;;5093759;28;20948;-84
2023/05/28 01:39:50;;;;;;;7.03;4.90;;;15.80;99.90;;;;;;5094030;28;20815;-84
2023/05/28 01:42:18;;;;;;;8.80;5.87;;;15.80;99.90;;;;;;5093709;28;20815;-84
2023/05/28 01:44:46;;;;;;;8.80;5.83;;;15.70;99.90;;;;;;5093705;28;20518;-84
2023/05/28 01:47:14;;;;;;;5.80;4.60;;;15.70;99.90;;;;;;5093571;28;20504;-84
2023/05/28 01:49:42;;;;;;;6.87;5.30;;;15.70;99.90;;;;;;5092768;28;20449;-84
2023/05/28 01:52:09;;;;;;;6.30;4.60;;;15.70;99.90;;;;;;5093628;28;20473;-85
2023/05/28 01:54:36;;;;;;;7.27;5.43;;;15.50;99.90;;;;;;5093642;28;20509;-84
2023/05/28 01:57:03;;;;;;;7.83;5.20;;;15.30;99.90;;;;;;5093442;28;20550;-83
2023/05/28 01:59:31;;;;;;;7.70;5.47;;;15.10;99.90;;;;;;5092973;28;20512;-84
2023/05/28 02:01:59;;;;;;;7.30;5.60;;;15.00;99.90;;;;;;5093324;28;20484;-84
2023/05/28 02:04:26;;;;;;;6.87;5.53;;;14.80;99.90;;;;;;5093731;28;20472;-84
2023/05/28 02:06:53;;;;;;;7.30;5.83;;;14.50;99.90;;;;;;5093172;28;20595;-83
2023/05/28 02:09:20;;;;;;;10.17;6.03;;;14.50;99.90;;;;;;5093467;28;20519;-84
2023/05/28 02:11:47;;;;;;;9.03;5.67;;;14.40;99.90;;;;;;5093300;28;20554;-84
2023/05/28 02:14:16;;;;;;;9.07;6.60;;;14.40;99.90;;;;;;5093176;28;21002;-84
2023/05/28 02:16:49;;;;;;;9.33;6.20;;;14.50;99.90;;;;;;5093286;28;20472;-84
2023/05/28 02:19:17;;;;;;;9.30;5.57;;;14.40;99.90;;;;;;5093099;28;20451;-84
2023/05/28 02:21:44;;;;;;;8.07;6.50;;;14.40;99.90;;;;;;5092840;28;21069;-84
2023/05/28 02:24:11;;;;;;;9.30;6.77;;;14.40;99.90;;;;;;5093005;28;20524;-83
2023/05/28 02:26:37;;;;;;;8.93;5.40;;;14.30;99.90;;;;;;5092688;28;21000;-84
2023/05/28 02:29:05;;;;;;;9.43;6.67;;;14.30;99.90;;;;;;5092641;28;20538;-84
2023/05/28 02:31:32;;;;;;;10.70;6.90;;;14.20;99.90;;;;;;5092975;28;21050;-84
2023/05/28 02:34:00;;;;;;;6.53;4.90;;;14.30;99.90;;;;;;5092623;28;20533;-84
2023/05/28 02:36:29;;;;;;;9.60;6.10;;;14.40;99.90;;;;;;5092454;28;20463;-84
2023/05/28 02:38:56;;;;;;;8.43;6.47;;;14.50;99.90;;;;;;5092800;28;21003;-84
2023/05/28 02:41:23;;;;;;;7.53;5.20;;;14.40;99.90;;;;;;5092880;28;20463;-84
2023/05/28 02:43:50;;;;;;;7.40;5.60;;;14.40;99.90;;;;;;5092910;28;20472;-84
2023/05/28 02:46:17;;;;;;;8.00;6.33;;;14.40;99.90;;;;;;5092905;28;20460;-83
2023/05/28 02:48:45;;;;;;;8.20;6.43;;;14.30;99.90;;;;;;5092747;28;20499;-84
2023/05/28 02:51:13;;;;;;;8.20;6.00;;;14.50;99.90;;;;;;5092949;28;20460;-84
2023/05/28 02:53:40;;;;;;;10.20;6.50;;;14.60;99.90;;;;;;5092464;28;20505;-84
2023/05/28 02:56:07;;;;;;;8.67;6.50;;;14.60;99.90;;;;;;5092425;28;20504;-84
2023/05/28 02:58:36;;;;;;;10.43;6.20;;;14.70;99.90;;;;;;5092089;28;20541;-84
2023/05/28 03:01:03;;;;;;;6.80;5.97;;;14.70;99.90;;;;;;5092182;28;20510;-84
2023/05/28 03:03:30;;;;;;;7.10;5.30;;;14.80;99.90;;;;;;5092404;28;20476;-84
2023/05/28 03:05:57;;;;;;;8.67;5.70;;;14.80;99.90;;;;;;5092472;28;20989;-84
2023/05/28 03:08:25;;;;;;;7.40;6.03;;;14.80;99.90;;;;;;5092019;28;20502;-84
2023/05/28 03:10:52;;;;;;;7.67;5.70;;;14.70;99.90;;;;;;5092516;28;20497;-84
2023/05/28 03:13:19;;;;;;;7.47;5.17;;;14.60;99.90;;;;;;5092546;28;20527;-84
2023/05/28 03:15:46;;;;;;;7.17;5.77;;;14.50;99.90;;;;;;5091985;28;20432;-84
2023/05/28 03:18:13;;;;;;;9.30;5.40;;;14.50;99.90;;;;;;5092250;28;20449;-84
2023/05/28 03:20:40;;;;;;;10.63;5.77;;;14.50;99.90;;;;;;5092099;28;20554;-84
2023/05/28 03:23:06;;;;;;;11.40;5.60;;;14.50;99.90;;;;;;5091703;28;20449;-83
2023/05/28 03:25:35;;;;;;;8.60;6.13;;;14.50;99.90;;;;;;5091864;28;20999;-84
2023/05/28 03:28:02;;;;;;;9.73;7.20;;;14.50;99.90;;;;;;5091359;28;20558;-84
2023/05/28 03:30:28;;;;;;;8.07;6.30;;;14.50;99.90;;;;;;5091819;28;20563;-83
2023/05/28 03:32:55;;;;;;;10.60;6.10;;;14.60;99.90;;;;;;5091641;28;20484;-84
2023/05/28 03:35:22;;;;;;;7.40;5.43;;;14.60;99.90;;;;;;5091299;28;20999;-84
2023/05/28 03:37:49;;;;;;;7.37;5.30;;;14.60;99.90;;;;;;5091619;28;20839;-84
2023/05/28 03:40:16;;;;;;;6.93;5.00;;;14.60;99.90;;;;;;5091808;28;20529;-84
2023/05/28 03:42:45;;;;;;;7.77;5.67;;;14.50;99.90;;;;;;5091334;28;20429;-84
2023/05/28 03:45:12;;;;;;;7.97;5.90;;;14.50;99.90;;;;;;5091762;28;20466;-84
2023/05/28 03:47:38;;;;;;;8.00;5.83;;;14.40;99.90;;;;;;5091424;28;20512;-84
2023/05/28 03:50:06;;;;;;;5.90;4.63;;;14.50;99.90;;;;;;5091582;28;20467;-83
2023/05/28 03:52:33;;;;;;;7.77;5.80;;;14.50;99.90;;;;;;5091340;28;20481;-84
2023/05/28 03:55:00;;;;;;;8.13;5.17;;;14.50;99.90;;;;;;5091279;28;20820;-84
2023/05/28 03:57:27;;;;;;;6.57;5.07;;;14.50;99.90;;;;;;5091311;28;20462;-84
2023/05/28 03:59:57;;;;;;;7.30;5.27;;;14.50;99.90;;;;;;5090572;28;20428;-84
2023/05/28 04:02:24;;;;;;;6.40;5.07;;;14.50;99.90;;;;;;5091473;28;20436;-84
2023/05/28 04:04:51;;;;;;;8.13;5.60;;;14.60;99.90;;;;;;5091411;28;20448;-84
2023/05/28 04:07:18;;;;;;;7.77;5.20;;;14.70;99.90;;;;;;5091089;28;20476;-84
2023/05/28 04:09:45;;;;;;;5.97;5.27;;;14.80;99.90;;;;;;5091064;28;21032;-83
2023/05/28 04:12:12;;;;;;;9.57;5.57;;;14.80;99.90;;;;;;5090652;28;20531;-83
2023/05/28 04:14:40;;;;;;;8.20;5.47;;;14.90;99.90;;;;;;5091616;28;20452;-84
2023/05/28 04:17:10;;;;;;;6.90;5.30;;;14.90;99.90;;;;;;5102529;28;21357;-84
2023/05/28 04:19:37;;;;;;;7.10;5.73;;;14.90;99.90;;;;;;5091340;28;20440;-83
2023/05/28 04:22:05;;;;;;;5.90;5.30;;;14.90;99.90;;;;;;5091082;28;20487;-83
2023/05/28 04:24:32;;;;;;;7.37;5.50;;;14.90;99.90;;;;;;5090730;28;20532;-84
2023/05/28 04:26:59;;;;;;;5.97;5.37;;;14.90;99.90;;;;;;5090601;28;20492;-84
2023/05/28 04:29:29;;;;;;;7.90;6.20;;;14.90;99.90;;;;;;5090589;28;20542;-84
2023/05/28 04:31:57;;;;;;;6.87;5.30;;;15.00;99.90;;;;;;5090773;28;20472;-84
2023/05/28 04:34:25;;;;;;;8.43;5.70;;;15.00;99.90;;;;;;5090132;28;20481;-84
2023/05/28 04:36:53;;;;;;;8.23;5.33;;;15.00;99.90;;;;;;5091386;28;20448;-84
2023/05/28 04:39:22;;;;;;;6.73;5.33;;;15.00;99.90;;;;;;5092139;28;20476;-84
2023/05/28 04:41:49;;;;;;;7.67;5.27;;;14.90;99.90;;;;;;5090704;28;20479;-83
2023/05/28 04:44:16;;;;;;;8.63;6.67;;;14.70;99.90;;;;;;5090994;28;20554;-84
2023/05/28 04:46:45;;;;;;;7.60;6.20;;;14.50;99.90;;;;;;5090601;28;20814;-84
2023/05/28 04:49:12;;;;;;;8.30;5.83;;;14.50;99.90;;;;;;5090451;28;20477;-84
2023/05/28 04:51:41;;;;;;;11.27;6.60;;;14.50;99.90;;;;;;5090969;28;20458;-84
2023/05/28 04:54:07;;;;;;;8.00;6.30;;;14.50;99.90;;;;;;5090587;28;20926;-84
2023/05/28 04:56:35;;;;;;;8.07;5.83;;;14.50;99.90;;;;;;5090754;28;20543;-84
2023/05/28 04:59:04;;;;;;;7.23;5.07;;;14.50;99.90;;;;;;5090097;28;20442;-84
2023/05/28 05:01:33;;;;;;;9.97;5.77;;;14.50;99.90;;;;;;5091114;28;20460;-84
2023/05/28 05:04:00;;;;;;;7.77;5.60;;;14.50;99.90;;;;;;5091484;28;20449;-84
2023/05/28 05:06:27;;;;;;;6.00;4.97;;;14.50;99.90;;;;;;5091355;28;20477;-84
2023/05/28 05:08:56;;;;;;;7.77;5.70;;;14.40;99.90;;;;;;5091590;28;20498;-84
2023/05/28 05:11:22;;;;;;;7.80;5.53;;;14.50;99.90;;;;;;5091228;28;21072;-84
2023/05/28 05:13:50;;;;;;;7.07;4.93;;;14.60;99.90;;;;;;5091502;28;20482;-84
2023/05/28 05:16:17;;;;;;;7.37;5.50;;;14.70;99.90;;;;;;5091608;28;20520;-84
2023/05/28 05:18:44;;;;;;;6.30;5.00;;;14.60;99.90;;;;;;5091817;28;20440;-83
2023/05/28 05:21:12;;;;;;;8.60;6.00;;;14.60;99.90;;;;;;5091365;28;20551;-85
2023/05/28 05:23:40;;;;;;;7.13;5.80;;;14.50;99.90;;;;;;5091608;28;20549;-84
2023/05/28 05:26:09;;;;;;;6.40;5.20;;;14.40;99.90;;;;;;5095222;28;20956;-84
2023/05/28 05:28:36;;;;;;;8.77;6.40;;;14.30;99.90;;;;;;5094505;28;20531;-83
2023/05/28 05:31:04;;;;;;;9.53;5.80;;;14.30;99.90;;;;;;5095096;28;20854;-84
2023/05/28 05:33:31;;;;;;;8.23;5.43;;;14.30;99.90;;;;;;5094359;28;20488;-84
2023/05/28 05:35:58;;;;;;;8.40;5.93;;;14.30;99.90;;;;;;5094671;28;20527;-84
2023/05/28 05:38:25;;;;;;;10.03;5.70;;;14.30;99.90;;;;;;5094740;28;20462;-84
2023/05/28 05:40:52;;;;;;;8.67;6.10;;;14.30;99.90;;;;;;5094948;28;20872;-84
2023/05/28 05:43:20;;;;;;;7.37;5.73;;;14.40;99.90;;;;;;5094865;28;20539;-84
2023/05/28 05:45:47;;;;;;;7.37;5.87;;;14.40;99.90;;;;;;5094480;28;20444;-84
2023/05/28 05:48:14;;;;;;;7.50;6.07;;;14.50;99.90;;;;;;5094650;28;20995;-84
2023/05/28 05:51:00;;;;;;;7.90;5.47;;;14.50;99.90;;;;;;5094668;28;20550;-84
2023/05/28 05:53:27;;;;;;;11.13;6.73;;;14.40;99.90;;;;;;5094458;28;20477;-84
2023/05/28 05:55:54;;;;;;;6.80;5.30;;;14.40;99.90;;;;;;5094157;28;20485;-84
2023/05/28 05:58:23;;;;;;;6.23;5.27;;;14.30;99.90;;;;;;5093739;28;20440;-84
2023/05/28 06:00:50;;;;;;;9.00;5.83;;;;;;;;;;5093943;28;20496;-84
2023/05/28 06:03:17;;;;;;;6.30;5.67;;;14.60;99.90;;;;;;5093716;28;20477;-83
2023/05/28 06:05:44;;;;;;;8.80;6.60;;;14.80;99.90;;;;;;5093703;28;20526;-84
2023/05/28 06:08:11;;;;;;;7.80;5.60;;;15.10;99.90;;;;;;5093855;28;21058;-84
2023/05/28 06:10:38;;;;;;;7.77;5.37;;;15.20;99.90;;;;;;5093940;28;20500;-84
2023/05/28 06:13:05;;;;;;;8.20;5.57;;;15.20;99.90;;;;;;5093776;28;20489;-83
2023/05/28 06:15:34;;;;;;;9.60;5.27;;;15.40;99.90;;;;;;5093141;28;20474;-83
2023/05/28 06:18:03;;;;;;;7.90;5.53;;;15.30;99.90;;;;;;5092312;28;20933;-84
2023/05/28 06:20:30;;;;;;;6.33;5.03;;;15.30;99.90;;;;;;5101810;28;20476;-83
2023/05/28 06:22:57;;;;;;;6.13;5.50;;;15.40;99.90;;;;;;5101722;28;20985;-84
2023/05/28 06:25:24;;;;;;;7.50;6.07;;;15.40;99.90;;;;;;5094225;28;20441;-84
2023/05/28 06:27:51;;;;;;;8.00;5.30;;;15.50;99.90;;;;;;5107252;28;20483;-84
2023/05/28 06:30:18;;;;;;;9.83;5.63;;;15.60;99.90;;;;;;5104332;28;20907;-84
2023/05/28 06:32:46;;;;;;;7.57;5.40;;;15.50;99.90;;;;;;5105012;28;20451;-83
2023/05/28 06:35:13;;;;;;;8.37;5.10;;;15.40;99.90;;;;;;5103482;28;20499;-84
2023/05/28 06:37:40;;;;;;;8.40;4.70;;;15.40;99.90;;;;;;5102856;28;20434;-84
2023/05/28 06:40:10;;;;;;;6.20;5.60;;;15.30;99.90;;;;;;5103121;28;20498;-84
2023/05/28 06:42:37;;;;;;;8.83;5.80;;;15.30;99.90;;;;;;5101250;28;21108;-84
2023/05/28 06:45:04;;;;;;;8.30;5.20;;;15.30;99.90;;;;;;5102385;28;20436;-84
2023/05/28 06:47:31;;;;;;;9.23;5.63;;;15.30;99.90;;;;;;5104223;28;20970;-84
2023/05/28 06:50:00;;;;;;;6.77;5.63;;;15.40;99.90;;;;;;5103473;28;20537;-84
2023/05/28 06:52:27;;;;;;;6.50;5.07;;;15.40;99.90;;;;;;5102211;28;20526;-83
2023/05/28 06:54:54;;;;;;;6.97;4.63;;;15.50;99.90;;;;;;5100716;28;20932;-84
2023/05/28 06:57:21;;;;;;;9.30;6.40;;;15.60;99.90;;;;;;5102809;28;20434;-84
2023/05/28 06:59:48;;;;;;;7.93;5.70;;;15.70;99.90;;;;;;5103458;28;20485;-84
2023/05/28 07:02:15;;;;;;;6.60;4.93;;;15.80;99.90;;;;;;5102809;28;20529;-84
2023/05/28 07:04:42;;;;;;;7.77;5.50;;;15.90;99.90;;;;;;5101736;28;20446;-84
2023/05/28 07:07:11;;;;;;;12.17;5.73;;;16.00;99.90;;;;;;5101593;28;20533;-84
2023/05/28 07:09:38;;;;;;;7.40;5.43;;;16.00;99.90;;;;;;5103532;28;20821;-84
2023/05/28 07:12:06;;;;;;;7.00;5.60;;;16.10;99.90;;;;;;5102499;28;20434;-84
2023/05/28 07:14:33;;;;;;;7.20;5.70;;;16.00;99.90;;;;;;5100587;28;20532;-84
2023/05/28 07:17:00;;;;;;;8.40;5.53;;;16.10;99.90;;;;;;5101509;28;20495;-84
2023/05/28 07:19:27;;;;;;;6.80;4.77;;;16.10;99.90;;;;;;5102836;28;20492;-84
2023/05/28 07:21:54;;;;;;;6.70;5.80;;;16.20;99.90;;;;;;5101059;28;20458;-84
2023/05/28 07:24:22;;;;;;;7.60;5.70;;;16.20;99.90;;;;;;5103262;28;20434;-84
2023/05/28 07:26:49;;;;;;;8.27;6.03;;;16.20;99.90;;;;;;5102940;28;20528;-84
2023/05/28 07:29:18;;;;;;;8.50;6.13;;;16.20;99.90;;;;;;5106080;28;20474;-84
2023/05/28 07:31:45;;;;;;;6.67;5.20;;;16.40;99.90;;;;;;5102483;28;20983;-84
2023/05/28 07:34:12;;;;;;;7.10;5.40;;;16.50;99.90;;;;;;5101261;28;20454;-84
2023/05/28 07:36:39;;;;;;;7.20;5.80;;;16.60;99.90;;;;;;5105306;28;20471;-84
2023/05/28 07:39:06;;;;;;;9.97;6.07;;;16.70;99.90;;;;;;5104050;28;20452;-84
2023/05/28 07:41:35;;;;;;;7.33;4.67;;;16.80;99.90;;;;;;5106119;28;20551;-84
2023/05/28 07:44:01;;;;;;;6.83;5.60;;;16.80;99.90;;;;;;5099560;28;20438;-84
2023/05/28 07:46:28;;;;;;;6.77;5.80;;;16.90;99.90;;;;;;5100818;28;20795;-84
2023/05/28 07:48:55;;;;;;;7.27;5.23;;;16.90;99.90;;;;;;5097430;28;20563;-84
2023/05/28 07:51:22;;;;;;;8.23;6.27;;;17.00;99.90;;;;;;5090994;28;20497;-80
2023/05/28 07:53:49;;;;;;;9.60;6.40;;;17.00;99.90;;;;;;5091268;28;20898;-82
2023/05/28 07:56:16;;;;;;;8.27;5.97;;;17.10;99.90;;;;;;5096867;28;20478;-83
2023/05/28 07:58:46;;;;;;;8.23;6.10;;;17.10;99.90;;;;;;5098241;28;20431;-82
2023/05/28 08:01:13;;;;;;;10.30;5.90;;;17.10;99.90;;;;;;5103724;28;20455;-83
2023/05/28 08:03:40;;;;;;;9.70;6.17;;;17.20;99.90;;;;;;5118929;28;20429;-83
2023/05/28 08:06:08;;;;;;;7.40;5.80;;;17.20;99.90;;;;;;5097468;28;20445;-82
2023/05/28 08:08:36;;;;;;;8.83;6.27;;;17.20;99.90;;;;;;5093517;28;20468;-82
2023/05/28 08:11:02;;;;;;;9.70;6.13;;;17.30;99.90;;;;;;5093375;28;20529;-82
2023/05/28 08:13:29;;;;;;;8.60;6.40;;;17.30;99.90;;;;;;5103789;28;20448;-82
2023/05/28 08:16:00;;;;;;;9.03;6.77;;;17.30;99.90;;;;;;5110627;28;20480;-83
2023/05/28 08:18:27;;;;;;;12.37;8.60;;;17.30;99.90;;;;;;5092347;28;20535;-82
2023/05/28 08:20:54;;;;;;;9.97;7.73;;;17.30;99.90;;;;;;5092710;28;20489;-82
2023/05/28 08:23:21;;;;;;;10.47;7.67;;;17.30;99.90;;;;;;5109851;28;20442;-83
2023/05/28 08:25:48;;;;;;;8.73;6.33;;;17.30;99.90;;;;;;5098092;28;20469;-82
2023/05/28 08:28:18;;;;;;;7.67;6.53;;;17.30;99.90;;;;;;5092685;28;20493;-83
2023/05/28 08:30:45;;;;;;;7.10;5.70;;;17.40;99.90;;;;;;5091690;28;20574;-82
2023/05/28 08:33:13;;;;;;;8.10;6.03;;;17.40;99.90;;;;;;5100024;28;20483;-82
2023/05/28 08:35:40;;;;;;;8.33;5.80;;;17.40;99.90;;;;;;5108347;28;20459;-82
2023/05/28 08:38:07;;;;;;;7.10;6.20;;;17.40;99.90;;;;;;5109966;28;20514;-82
2023/05/28 08:40:39;;;;;;;8.13;6.50;;;17.40;99.90;;;;;;5113415;28;21066;-82
2023/05/28 08:43:06;;;;;;;8.10;6.50;;;17.40;99.90;;;;;;5105787;28;20472;-82
2023/05/28 08:45:37;;;;;;;8.63;6.50;;;17.50;99.90;;;;;;5100900;28;20557;-82
2023/05/28 08:48:06;;;;;;;7.00;6.30;;;17.50;99.90;;;;;;5110404;28;20554;-82
2023/05/28 08:50:38;;;;;;;8.33;6.93;;;17.60;99.90;;;;;;5109991;28;20930;-82
2023/05/28 08:53:07;;;;;;;9.10;6.77;;;17.60;99.90;;;;;;5110943;28;20495;-82
2023/05/28 08:55:35;;;;;;;7.80;6.00;;;17.70;99.90;;;;;;5107624;28;20919;-82
2023/05/28 08:58:03;;;;;;;9.60;6.30;;;17.70;99.90;;;;;;5112162;28;20442;-82
2023/05/28 09:00:30;;;;;;;8.40;6.10;;;17.70;99.90;;;;;;5111513;28;20464;-82
2023/05/28 09:02:58;;;;;;;9.87;7.40;;;17.70;99.90;;;;;;5112873;28;20448;-82
2023/05/28 09:05:25;;;;;;;7.70;6.00;;;17.80;99.90;;;;;;5117953;28;20479;-82
2023/05/28 09:07:53;;;;;;;7.50;5.33;;;18.00;99.90;;;;;;5116693;28;20448;-82
2023/05/28 09:10:20;;;;;;;7.30;6.33;;;18.10;99.90;;;;;;5116177;28;20521;-82
2023/05/28 09:12:59;;;;;;;7.43;4.47;;;18.30;99.90;;;;;;5110723;28;20480;-82
2023/05/28 09:15:26;;;;;;;6.83;4.83;;;18.40;99.90;;;;;;5107064;28;20436;-83
2023/05/28 09:17:53;;;;;;;8.67;6.20;;;18.50;99.90;;;;;;5106390;28;20487;-82
2023/05/28 09:20:20;;;;;;;8.23;6.63;;;18.60;99.90;;;;;;5108523;28;20876;-82
2023/05/28 09:22:57;;;;;;;8.10;5.53;;;18.50;99.90;;;;;;5108453;28;20440;-82
2023/05/28 09:25:26;;;;;;;9.50;5.43;;;18.50;99.90;;;;;;5107263;28;20493;-82
2023/05/28 09:27:54;;;;;;;6.00;5.40;;;18.50;99.90;;;;;;5111792;28;20452;-83
2023/05/28 09:30:22;;;;;;;6.80;5.60;;;18.60;99.90;;;;;;5112316;28;21004;-82
2023/05/28 09:32:57;;;;;;;10.00;6.60;;;18.60;99.90;;;;;;5106507;28;20467;-82
2023/05/28 09:35:26;;;;;;;6.40;5.73;;;18.70;99.90;;;;;;5111142;28;20442;-83
2023/05/28 09:38:01;;;;;;;10.43;6.60;;;18.70;99.90;;;;;;5103164;28;20454;-82
2023/05/28 09:40:30;;;;;;;6.70;5.90;;;18.70;99.90;;;;;;5110841;28;20458;-81
2023/05/28 09:42:57;;;;;;;8.93;6.23;;;18.80;99.90;;;;;;5110659;28;20473;-81
2023/05/28 09:45:25;;;;;;;7.50;6.23;;;18.80;99.90;;;;;;5102770;28;20820;-81
2023/05/28 09:47:53;;;;;;;9.17;7.10;;;18.80;99.90;;;;;;5110949;28;21027;-81
2023/05/28 09:50:20;;;;;;;7.80;6.40;;;18.90;99.90;;;;;;5102312;28;20553;-82
2023/05/28 09:52:47;;;;;;;7.80;6.67;;;19.00;99.90;;;;;;5110351;28;20531;-82
2023/05/28 09:55:17;;;;;;;8.47;6.23;;;19.00;99.90;;;;;;5110078;28;20541;-81
2023/05/28 09:57:54;;;;;;;5.80;4.50;;;19.10;99.90;;;;;;5110711;27;20447;-82
2023/05/28 10:00:27;;;;;;;9.33;6.07;;;19.10;99.90;;;;;;5110149;28;20854;-82
2023/05/28 10:03:13;;;;;;;8.20;6.03;;;19.10;99.90;;;;;;5102320;28;20451;-81
2023/05/28 10:05:43;;;;;;;7.63;6.30;;;19.10;99.90;;;;;;5111270;28;20516;-81
2023/05/28 10:08:14;;;;;;;9.17;6.53;;;19.00;99.90;;;;;;5109882;28;21070;-81
2023/05/28 10:10:45;;;;;;;7.60;6.17;;;19.00;99.90;;;;;;5111571;27;20508;-82
2023/05/28 10:13:14;;;;;;;8.30;6.77;;;19.00;99.90;;;;;;5112816;28;20459;-81
2023/05/28 10:15:42;;;;;;;7.10;5.77;;;19.10;99.90;;;;;;5113421;28;20530;-81
2023/05/28 10:18:10;;;;;;;9.03;6.07;;;19.10;99.90;;;;;;5113510;28;20444;-82
2023/05/28 10:20:37;;;;;;;9.13;6.53;;;19.00;99.90;;;;;;5098086;28;20495;-81
2023/05/28 10:23:05;;;;;;;10.33;6.30;;;19.10;99.90;;;;;;5103242;28;20877;-81
2023/05/28 10:25:33;;;;;;;8.53;7.00;;;19.00;99.90;;;;;;5101835;27;20465;-81
2023/05/28 10:28:02;;;;;;;8.80;6.50;;;18.90;99.90;;;;;;5109741;28;20504;-81
2023/05/28 10:30:35;;;;;;;9.97;6.23;;;19.00;99.90;;;;;;5105711;28;20859;-82
2023/05/28 10:33:04;;;;;;;7.80;5.70;;;18.90;99.90;;;;;;5101459;28;20557;-81
2023/05/28 10:35:34;;;;;;;6.97;5.83;;;18.90;99.90;;;;;;5110209;28;20438;-81
2023/05/28 10:38:05;;;;;;;8.97;6.43;;;19.00;99.90;;;;;;5109616;28;21129;-82
2023/05/28 10:40:35;;;;;;;6.77;5.80;;;19.00;99.90;;;;;;5111527;28;20547;-81
2023/05/28 10:43:02;;;;;;;8.40;5.90;;;19.10;99.90;;;;;;5111949;28;20447;-82
2023/05/28 10:45:37;;;;;;;10.60;6.97;;;19.10;99.90;;;;;;5109960;28;20862;-82
2023/05/28 10:48:05;;;;;;;7.20;6.33;;;19.10;99.90;;;;;;5109986;28;20547;-82
2023/05/28 10:50:32;;;;;;;7.63;6.20;;;19.30;99.90;;;;;;5109874;28;20560;-82
2023/05/28 10:53:06;;;;;;;8.37;7.30;;;19.40;99.90;;;;;;5109165;28;20483;-81
2023/05/28 10:55:49;;;;;;;9.20;6.77;;;19.30;99.90;;;;;;5109268;28;21040;-82
2023/05/28 10:58:29;;;;;;;9.37;7.37;;;19.20;99.90;;;;;;5109400;28;20541;-82
2023/05/28 11:01:05;;;;;;;6.93;5.73;;;19.20;99.90;;;;;;5099607;28;20999;-82
2023/05/28 11:03:42;;;;;;;7.60;6.73;;;19.20;99.90;;;;;;5095039;28;20452;-82
2023/05/28 11:06:11;;;;;;;7.13;6.00;;;19.20;99.90;;;;;;5100663;28;20445;-82
2023/05/28 11:08:41;;;;;;;9.30;6.37;;;19.20;99.90;;;;;;5108266;28;20540;-82
2023/05/28 11:11:08;;;;;;;8.23;6.43;;;19.20;99.90;;;;;;5109163;28;20513;-83
2023/05/28 11:13:35;;;;;;;8.77;7.13;;;19.40;99.90;;;;;;5109364;28;20530;-82
2023/05/28 11:16:11;;;;;;;14.70;6.57;;;19.40;99.90;;;;;;5109124;28;20506;-83
2023/05/28 11:18:38;;;;;;;10.03;6.57;;;19.50;99.90;;;;;;5112943;28;20875;-83
2023/05/28 11:21:07;;;;;;;8.27;6.43;;;19.60;99.90;;;;;;5109067;28;21270;-83
2023/05/28 11:23:36;;;;;;;6.77;5.57;;;19.60;99.90;;;;;;5102217;28;20455;-83
2023/05/28 11:26:04;;;;;;;8.27;5.97;;;19.60;99.90;;;;;;5100689;28;20458;-83
2023/05/28 11:28:31;;;;;;;9.20;6.80;;;19.70;99.90;;;;;;5111061;28;20512;-83
2023/05/28 11:30:59;;;;;;;11.77;6.33;;;19.80;99.90;;;;;;5106160;28;20932;-84
2023/05/28 11:33:31;;;;;;;10.83;6.40;;;19.70;99.90;;;;;;5102238;28;20441;-84
2023/05/28 11:36:00;;;;;;;7.87;5.90;;;19.70;99.90;;;;;;5116596;28;20465;-84
2023/05/28 11:38:27;;;;;;;8.33;6.00;;;19.80;99.90;;;;;;5105666;27;20462;-84
2023/05/28 11:41:01;;;;;;;8.10;6.37;;;19.80;99.90;;;;;;5091785;28;20516;-85
2023/05/28 11:43:29;;;;;;;7.07;5.33;;;19.80;99.90;;;;;;5092435;28;20428;-84
2023/05/28 11:45:59;;;;;;;9.60;6.60;;;19.90;99.90;;;;;;5092653;28;20485;-84
2023/05/28 11:48:27;;;;;;;7.50;6.20;;;20.00;99.90;;;;;;5108246;28;20430;-84
2023/05/28 11:51:00;;;;;;;10.00;6.30;;;20.10;99.90;;;;;;5094992;28;20479;-84
2023/05/28 11:53:39;;;;;;;6.10;5.50;;;20.20;99.90;;;;;;5092458;28;20445;-82
2023/05/28 11:56:07;;;;;;;8.07;6.10;;;20.20;99.90;;;;;;5091724;28;20440;-82
2023/05/28 11:58:37;;;;;;;7.97;5.10;;;20.30;99.90;;;;;;5091993;28;20475;-82
2023/05/28 12:01:05;;;;;;;11.23;5.60;;;20.30;99.90;;;;;;5092145;28;21021;-82
2023/05/28 12:03:32;;;;;;;6.50;4.97;;;20.30;99.90;;;;;;5091827;28;20522;-82
2023/05/28 12:06:00;;;;;;;7.20;5.10;;;20.30;99.90;;;;;;5091299;28;20523;-81
2023/05/28 12:08:28;;;;;;;8.57;5.27;;;20.30;99.90;;;;;;5091562;28;20864;-82
2023/05/28 12:11:01;;;;;;;7.67;5.80;;;20.40;99.90;;;;;;5091588;28;20502;-82
2023/05/28 12:13:33;;;;;;;6.73;5.13;;;20.50;99.90;;;;;;5091923;28;20446;-82
2023/05/28 12:16:07;;;;;;;6.27;4.40;;;20.50;99.90;;;;;;5092515;28;20448;-81
2023/05/28 12:18:34;;;;;;;6.40;4.57;;;20.50;99.90;;;;;;5100215;28;20451;-81
2023/05/28 12:21:03;;;;;;;7.40;5.03;;;20.60;99.90;;;;;;5099746;28;20456;-81
2023/05/28 12:23:30;;;;;;;8.50;5.00;;;20.60;99.90;;;;;;5092766;28;20528;-81
2023/05/28 12:25:58;;;;;;;7.40;5.30;;;20.60;99.90;;;;;;5111124;28;20534;-81
2023/05/28 12:28:24;;;;;;;6.10;4.30;;;20.60;99.90;;;;;;5111573;28;20509;-81
2023/05/28 12:30:52;;;;;;;8.90;5.73;;;20.60;99.90;;;;;;5103083;28;20555;-82
2023/05/28 12:33:20;;;;;;;6.47;4.90;;;20.60;99.90;;;;;;5110861;28;21002;-81
2023/05/28 12:35:47;;;;;;;8.03;5.53;;;20.70;99.90;;;;;;5110722;28;20531;-81
2023/05/28 12:38:15;;;;;;;6.17;4.80;;;20.70;99.90;;;;;;5108436;28;20478;-81
2023/05/28 12:40:42;;;;;;;8.37;5.20;;;20.80;99.90;;;;;;5108043;28;20509;-82
2023/05/28 12:43:09;;;;;;;8.33;5.80;;;20.80;99.90;;;;;;5091332;28;20448;-82
2023/05/28 12:45:36;;;;;;;8.47;4.97;;;20.80;99.90;;;;;;5091482;28;20448;-82
2023/05/28 12:48:03;;;;;;;8.40;5.20;;;20.90;99.90;;;;;;5092890;28;20504;-82
2023/05/28 12:50:30;;;;;;;6.20;4.90;;;21.00;99.90;;;;;;5110038;28;20486;-82